sensor_id;sensor_type;location;lat;lon;timestamp;P1;durP1;ratioP1;P2;durP2;ratioP2
4385;SDS011;2207;53.540;10.042;2024-03-02T00:00:22;31.10;;;16.10;;
4385;SDS011;2207;53.540;10.042;2024-03-02T00:02:52;26.77;;;16.30;;
4385;SDS011;2207;53.540;10.042;2024-03-02T00:05:19;25.27;;;15.70;;
4385;SDS011;2207;53.540;10.042;2024-03-02T00:07:47;24.83;;;14.03;;
4385;SDS011;2207;53.540;10.042;2024-03-02T00:10:19;23.73;;;14.90;;
4385;SDS011;2207;53.540;10.042;2024-03-02T00:12:50;25.07;;;15.53;;
4385;SDS011;2207;53.540;10.042;2024-03-02T00:15:29;28.37;;;15.73;;
4385;SDS011;2207;53.540;10.042;2024-03-02T00:18:18;24.20;;;15.83;;
4385;SDS011;2207;53.540;10.042;2024-03-02T00:20:46;24.33;;;14.83;;
4385;SDS011;2207;53.540;10.042;2024-03-02T00:23:14;24.73;;;14.53;;
4385;SDS011;2207;53.540;10.042;2024-03-02T00:25:46;30.60;;;16.73;;
4385;SDS011;2207;53.540;10.042;2024-03-02T00:28:16;26.30;;;15.63;;
4385;SDS011;2207;53.540;10.042;2024-03-02T00:30:55;25.40;;;14.93;;
4385;SDS011;2207;53.540;10.042;2024-03-02T00:33:26;29.97;;;18.40;;
4385;SDS011;2207;53.540;10.042;2024-03-02T00:35:54;28.73;;;17.00;;
4385;SDS011;2207;53.540;10.042;2024-03-02T00:38:22;32.10;;;18.23;;
4385;SDS011;2207;53.540;10.042;2024-03-02T00:40:50;30.07;;;17.33;;
4385;SDS011;2207;53.540;10.042;2024-03-02T00:43:24;31.27;;;18.20;;
4385;SDS011;2207;53.540;10.042;2024-03-02T00:46:12;32.60;;;18.93;;
4385;SDS011;2207;53.540;10.042;2024-03-02T00:48:47;33.07;;;18.80;;
4385;SDS011;2207;53.540;10.042;2024-03-02T00:51:17;39.60;;;20.17;;
4385;SDS011;2207;53.540;10.042;2024-03-02T00:53:44;31.00;;;16.60;;
4385;SDS011;2207;53.540;10.042;2024-03-02T00:56:11;37.50;;;19.97;;
4385;SDS011;2207;53.540;10.042;2024-03-02T00:58:38;36.03;;;21.30;;
4385;SDS011;2207;53.540;10.042;2024-03-02T01:01:06;39.77;;;21.43;;
4385;SDS011;2207;53.540;10.042;2024-03-02T01:03:36;39.53;;;21.57;;
4385;SDS011;2207;53.540;10.042;2024-03-02T01:06:03;43.73;;;22.57;;
4385;SDS011;2207;53.540;10.042;2024-03-02T01:08:32;39.23;;;22.37;;
4385;SDS011;2207;53.540;10.042;2024-03-02T01:10:59;43.50;;;23.83;;
4385;SDS011;2207;53.540;10.042;2024-03-02T01:13:26;43.70;;;23.57;;
4385;SDS011;2207;53.540;10.042;2024-03-02T01:15:54;44.30;;;23.13;;
4385;SDS011;2207;53.540;10.042;2024-03-02T01:18:21;45.03;;;23.10;;
4385;SDS011;2207;53.540;10.042;2024-03-02T01:20:50;44.53;;;23.30;;
4385;SDS011;2207;53.540;10.042;2024-03-02T01:23:17;41.53;;;24.03;;
4385;SDS011;2207;53.540;10.042;2024-03-02T01:25:45;42.67;;;21.07;;
4385;SDS011;2207;53.540;10.042;2024-03-02T01:28:12;41.60;;;23.87;;
4385;SDS011;2207;53.540;10.042;2024-03-02T01:30:39;44.57;;;24.37;;
4385;SDS011;2207;53.540;10.042;2024-03-02T01:33:06;45.80;;;24.70;;
4385;SDS011;2207;53.540;10.042;2024-03-02T01:35:38;43.57;;;23.73;;
4385;SDS011;2207;53.540;10.042;2024-03-02T01:38:06;51.93;;;25.43;;
4385;SDS011;2207;53.540;10.042;2024-03-02T01:40:33;44.20;;;25.40;;
4385;SDS011;2207;53.540;10.042;2024-03-02T01:43:00;47.40;;;24.30;;
4385;SDS011;2207;53.540;10.042;2024-03-02T01:45:27;45.53;;;26.40;;
4385;SDS011;2207;53.540;10.042;2024-03-02T01:47:54;47.90;;;25.17;;
4385;SDS011;2207;53.540;10.042;2024-03-02T01:50:25;47.57;;;25.43;;
4385;SDS011;2207;53.540;10.042;2024-03-02T01:52:53;48.40;;;25.47;;
4385;SDS011;2207;53.540;10.042;2024-03-02T01:55:22;47.73;;;24.63;;
4385;SDS011;2207;53.540;10.042;2024-03-02T01:57:49;48.77;;;26.80;;
4385;SDS011;2207;53.540;10.042;2024-03-02T02:00:17;50.07;;;24.43;;
4385;SDS011;2207;53.540;10.042;2024-03-02T02:02:45;53.10;;;27.67;;
4385;SDS011;2207;53.540;10.042;2024-03-02T02:05:12;52.80;;;26.63;;
4385;SDS011;2207;53.540;10.042;2024-03-02T02:07:40;48.10;;;25.80;;
4385;SDS011;2207;53.540;10.042;2024-03-02T02:10:07;47.67;;;25.10;;
4385;SDS011;2207;53.540;10.042;2024-03-02T02:12:36;47.70;;;25.37;;
4385;SDS011;2207;53.540;10.042;2024-03-02T02:15:03;50.70;;;26.53;;
4385;SDS011;2207;53.540;10.042;2024-03-02T02:17:47;48.27;;;25.63;;
4385;SDS011;2207;53.540;10.042;2024-03-02T02:20:14;49.37;;;24.93;;
4385;SDS011;2207;53.540;10.042;2024-03-02T02:22:43;46.97;;;26.27;;
4385;SDS011;2207;53.540;10.042;2024-03-02T02:25:21;53.87;;;28.33;;
4385;SDS011;2207;53.540;10.042;2024-03-02T02:27:48;47.27;;;26.43;;
4385;SDS011;2207;53.540;10.042;2024-03-02T02:30:18;53.87;;;27.87;;
4385;SDS011;2207;53.540;10.042;2024-03-02T02:32:45;49.67;;;26.87;;
4385;SDS011;2207;53.540;10.042;2024-03-02T02:35:12;51.00;;;28.63;;
4385;SDS011;2207;53.540;10.042;2024-03-02T02:37:39;48.87;;;26.03;;
4385;SDS011;2207;53.540;10.042;2024-03-02T02:40:10;51.97;;;28.13;;
4385;SDS011;2207;53.540;10.042;2024-03-02T02:42:37;48.57;;;26.87;;
4385;SDS011;2207;53.540;10.042;2024-03-02T02:45:05;47.73;;;26.17;;
4385;SDS011;2207;53.540;10.042;2024-03-02T02:47:32;43.93;;;23.77;;
4385;SDS011;2207;53.540;10.042;2024-03-02T02:50:00;45.17;;;25.90;;
4385;SDS011;2207;53.540;10.042;2024-03-02T02:52:30;49.23;;;26.57;;
4385;SDS011;2207;53.540;10.042;2024-03-02T02:55:00;48.63;;;26.20;;
4385;SDS011;2207;53.540;10.042;2024-03-02T02:57:30;48.23;;;25.50;;
4385;SDS011;2207;53.540;10.042;2024-03-02T03:00:00;49.13;;;26.47;;
4385;SDS011;2207;53.540;10.042;2024-03-02T03:02:30;47.90;;;24.73;;
4385;SDS011;2207;53.540;10.042;2024-03-02T03:04:57;43.83;;;24.40;;
4385;SDS011;2207;53.540;10.042;2024-03-02T03:07:24;48.63;;;25.50;;
4385;SDS011;2207;53.540;10.042;2024-03-02T03:09:50;45.87;;;24.43;;
4385;SDS011;2207;53.540;10.042;2024-03-02T03:12:18;47.33;;;25.93;;
4385;SDS011;2207;53.540;10.042;2024-03-02T03:14:46;46.90;;;25.77;;
4385;SDS011;2207;53.540;10.042;2024-03-02T03:17:15;53.13;;;27.20;;
4385;SDS011;2207;53.540;10.042;2024-03-02T03:19:43;47.60;;;26.40;;
4385;SDS011;2207;53.540;10.042;2024-03-02T03:22:10;47.27;;;26.30;;
4385;SDS011;2207;53.540;10.042;2024-03-02T03:24:37;50.60;;;26.60;;
4385;SDS011;2207;53.540;10.042;2024-03-02T03:27:04;49.13;;;26.43;;
4385;SDS011;2207;53.540;10.042;2024-03-02T03:29:31;50.33;;;26.93;;
4385;SDS011;2207;53.540;10.042;2024-03-02T03:31:59;46.30;;;25.90;;
4385;SDS011;2207;53.540;10.042;2024-03-02T03:34:26;50.57;;;27.30;;
4385;SDS011;2207;53.540;10.042;2024-03-02T03:36:54;48.37;;;27.17;;
4385;SDS011;2207;53.540;10.042;2024-03-02T03:39:21;45.27;;;25.93;;
4385;SDS011;2207;53.540;10.042;2024-03-02T03:41:48;44.40;;;25.00;;
4385;SDS011;2207;53.540;10.042;2024-03-02T03:44:15;44.73;;;23.47;;
4385;SDS011;2207;53.540;10.042;2024-03-02T03:46:42;45.50;;;24.67;;
4385;SDS011;2207;53.540;10.042;2024-03-02T03:49:10;42.73;;;24.33;;
4385;SDS011;2207;53.540;10.042;2024-03-02T03:51:37;41.20;;;22.50;;
4385;SDS011;2207;53.540;10.042;2024-03-02T03:54:03;46.73;;;24.93;;
4385;SDS011;2207;53.540;10.042;2024-03-02T03:56:30;39.93;;;21.17;;
4385;SDS011;2207;53.540;10.042;2024-03-02T03:58:57;44.60;;;22.90;;
4385;SDS011;2207;53.540;10.042;2024-03-02T04:01:24;45.03;;;23.50;;
4385;SDS011;2207;53.540;10.042;2024-03-02T04:03:51;39.93;;;23.37;;
4385;SDS011;2207;53.540;10.042;2024-03-02T04:06:20;43.47;;;23.80;;
4385;SDS011;2207;53.540;10.042;2024-03-02T04:08:47;45.37;;;24.53;;
4385;SDS011;2207;53.540;10.042;2024-03-02T04:11:14;40.37;;;23.07;;
4385;SDS011;2207;53.540;10.042;2024-03-02T04:13:41;47.57;;;24.50;;
4385;SDS011;2207;53.540;10.042;2024-03-02T04:16:08;44.77;;;24.27;;
4385;SDS011;2207;53.540;10.042;2024-03-02T04:18:35;44.83;;;24.63;;
4385;SDS011;2207;53.540;10.042;2024-03-02T04:21:03;42.47;;;25.03;;
4385;SDS011;2207;53.540;10.042;2024-03-02T04:23:31;45.97;;;25.73;;
4385;SDS011;2207;53.540;10.042;2024-03-02T04:25:58;42.97;;;24.00;;
4385;SDS011;2207;53.540;10.042;2024-03-02T04:28:25;50.10;;;25.80;;
4385;SDS011;2207;53.540;10.042;2024-03-02T04:30:52;43.37;;;24.03;;
4385;SDS011;2207;53.540;10.042;2024-03-02T04:33:20;47.43;;;25.50;;
4385;SDS011;2207;53.540;10.042;2024-03-02T04:35:47;44.90;;;24.63;;
4385;SDS011;2207;53.540;10.042;2024-03-02T04:38:18;46.93;;;25.90;;
4385;SDS011;2207;53.540;10.042;2024-03-02T04:40:46;43.17;;;21.80;;
4385;SDS011;2207;53.540;10.042;2024-03-02T04:43:13;51.40;;;26.27;;
4385;SDS011;2207;53.540;10.042;2024-03-02T04:45:41;43.93;;;23.30;;
4385;SDS011;2207;53.540;10.042;2024-03-02T04:48:09;45.10;;;23.30;;
4385;SDS011;2207;53.540;10.042;2024-03-02T04:50:36;44.00;;;24.23;;
4385;SDS011;2207;53.540;10.042;2024-03-02T04:53:03;42.37;;;23.23;;
4385;SDS011;2207;53.540;10.042;2024-03-02T04:55:30;39.80;;;24.10;;
4385;SDS011;2207;53.540;10.042;2024-03-02T04:58:27;44.80;;;24.00;;
4385;SDS011;2207;53.540;10.042;2024-03-02T05:00:54;43.13;;;22.13;;
4385;SDS011;2207;53.540;10.042;2024-03-02T05:03:21;44.43;;;23.97;;
4385;SDS011;2207;53.540;10.042;2024-03-02T05:05:49;43.83;;;24.07;;
4385;SDS011;2207;53.540;10.042;2024-03-02T05:08:16;44.53;;;23.27;;
4385;SDS011;2207;53.540;10.042;2024-03-02T05:10:43;40.43;;;23.73;;
4385;SDS011;2207;53.540;10.042;2024-03-02T05:13:10;41.60;;;23.83;;
4385;SDS011;2207;53.540;10.042;2024-03-02T05:15:45;40.10;;;23.27;;
4385;SDS011;2207;53.540;10.042;2024-03-02T05:18:13;40.73;;;22.63;;
4385;SDS011;2207;53.540;10.042;2024-03-02T05:20:40;40.07;;;23.27;;
4385;SDS011;2207;53.540;10.042;2024-03-02T05:23:07;46.67;;;24.87;;
4385;SDS011;2207;53.540;10.042;2024-03-02T05:25:33;45.20;;;24.93;;
4385;SDS011;2207;53.540;10.042;2024-03-02T05:28:03;44.10;;;22.73;;
4385;SDS011;2207;53.540;10.042;2024-03-02T05:30:30;43.20;;;24.13;;
4385;SDS011;2207;53.540;10.042;2024-03-02T05:32:59;41.30;;;23.23;;
4385;SDS011;2207;53.540;10.042;2024-03-02T05:35:25;41.60;;;24.27;;
4385;SDS011;2207;53.540;10.042;2024-03-02T05:37:52;40.37;;;23.30;;
4385;SDS011;2207;53.540;10.042;2024-03-02T05:40:19;39.03;;;22.53;;
4385;SDS011;2207;53.540;10.042;2024-03-02T05:42:49;40.50;;;22.93;;
4385;SDS011;2207;53.540;10.042;2024-03-02T05:45:16;40.83;;;23.13;;
4385;SDS011;2207;53.540;10.042;2024-03-02T05:47:43;39.03;;;22.43;;
4385;SDS011;2207;53.540;10.042;2024-03-02T05:50:11;40.27;;;23.17;;
4385;SDS011;2207;53.540;10.042;2024-03-02T05:52:38;44.67;;;24.10;;
4385;SDS011;2207;53.540;10.042;2024-03-02T05:55:05;36.83;;;22.50;;
4385;SDS011;2207;53.540;10.042;2024-03-02T05:57:33;41.03;;;23.60;;
4385;SDS011;2207;53.540;10.042;2024-03-02T06:00:14;38.53;;;22.23;;
4385;SDS011;2207;53.540;10.042;2024-03-02T06:02:42;43.47;;;24.50;;
4385;SDS011;2207;53.540;10.042;2024-03-02T06:05:09;42.63;;;23.30;;
4385;SDS011;2207;53.540;10.042;2024-03-02T06:07:37;41.20;;;23.10;;
4385;SDS011;2207;53.540;10.042;2024-03-02T06:10:04;39.10;;;21.80;;
4385;SDS011;2207;53.540;10.042;2024-03-02T06:12:32;42.50;;;23.87;;
4385;SDS011;2207;53.540;10.042;2024-03-02T06:14:59;42.33;;;22.33;;
4385;SDS011;2207;53.540;10.042;2024-03-02T06:17:26;41.97;;;24.80;;
4385;SDS011;2207;53.540;10.042;2024-03-02T06:19:56;37.37;;;19.90;;
4385;SDS011;2207;53.540;10.042;2024-03-02T06:22:23;40.33;;;22.20;;
4385;SDS011;2207;53.540;10.042;2024-03-02T06:24:51;36.47;;;20.60;;
4385;SDS011;2207;53.540;10.042;2024-03-02T06:27:18;37.00;;;20.07;;
4385;SDS011;2207;53.540;10.042;2024-03-02T06:29:46;41.80;;;21.87;;
4385;SDS011;2207;53.540;10.042;2024-03-02T06:32:13;42.43;;;22.67;;
4385;SDS011;2207;53.540;10.042;2024-03-02T06:34:40;40.27;;;24.10;;
4385;SDS011;2207;53.540;10.042;2024-03-02T06:37:07;42.53;;;25.40;;
4385;SDS011;2207;53.540;10.042;2024-03-02T06:39:34;34.27;;;18.20;;
4385;SDS011;2207;53.540;10.042;2024-03-02T06:42:03;40.87;;;22.93;;
4385;SDS011;2207;53.540;10.042;2024-03-02T06:44:31;42.47;;;23.60;;
4385;SDS011;2207;53.540;10.042;2024-03-02T06:46:58;41.97;;;23.47;;
4385;SDS011;2207;53.540;10.042;2024-03-02T06:49:25;42.30;;;24.00;;
4385;SDS011;2207;53.540;10.042;2024-03-02T06:51:52;37.57;;;21.13;;
4385;SDS011;2207;53.540;10.042;2024-03-02T06:54:19;40.53;;;22.17;;
4385;SDS011;2207;53.540;10.042;2024-03-02T06:56:46;38.00;;;22.00;;
4385;SDS011;2207;53.540;10.042;2024-03-02T06:59:14;40.07;;;21.37;;
4385;SDS011;2207;53.540;10.042;2024-03-02T07:01:41;42.63;;;22.23;;
4385;SDS011;2207;53.540;10.042;2024-03-02T07:04:08;39.43;;;22.93;;
4385;SDS011;2207;53.540;10.042;2024-03-02T07:06:35;33.03;;;20.13;;
4385;SDS011;2207;53.540;10.042;2024-03-02T07:09:02;37.53;;;21.20;;
4385;SDS011;2207;53.540;10.042;2024-03-02T07:11:30;37.10;;;22.20;;
4385;SDS011;2207;53.540;10.042;2024-03-02T07:13:57;31.83;;;19.63;;
4385;SDS011;2207;53.540;10.042;2024-03-02T07:16:25;35.77;;;21.20;;
4385;SDS011;2207;53.540;10.042;2024-03-02T07:18:57;39.87;;;22.53;;
4385;SDS011;2207;53.540;10.042;2024-03-02T07:21:26;35.63;;;20.07;;
4385;SDS011;2207;53.540;10.042;2024-03-02T07:23:54;36.93;;;22.10;;
4385;SDS011;2207;53.540;10.042;2024-03-02T07:26:20;38.50;;;21.20;;
4385;SDS011;2207;53.540;10.042;2024-03-02T07:28:48;36.50;;;21.23;;
4385;SDS011;2207;53.540;10.042;2024-03-02T07:31:15;35.17;;;20.70;;
4385;SDS011;2207;53.540;10.042;2024-03-02T07:33:45;37.87;;;21.23;;
4385;SDS011;2207;53.540;10.042;2024-03-02T07:36:12;36.13;;;20.10;;
4385;SDS011;2207;53.540;10.042;2024-03-02T07:38:40;35.20;;;20.23;;
4385;SDS011;2207;53.540;10.042;2024-03-02T07:41:07;36.53;;;20.90;;
4385;SDS011;2207;53.540;10.042;2024-03-02T07:43:34;39.03;;;22.13;;
4385;SDS011;2207;53.540;10.042;2024-03-02T07:46:01;33.43;;;21.70;;
4385;SDS011;2207;53.540;10.042;2024-03-02T07:48:28;31.00;;;19.60;;
4385;SDS011;2207;53.540;10.042;2024-03-02T07:50:57;35.67;;;19.67;;
4385;SDS011;2207;53.540;10.042;2024-03-02T07:53:24;33.30;;;19.40;;
4385;SDS011;2207;53.540;10.042;2024-03-02T07:55:51;34.20;;;18.53;;
4385;SDS011;2207;53.540;10.042;2024-03-02T07:58:18;32.47;;;20.37;;
4385;SDS011;2207;53.540;10.042;2024-03-02T08:00:45;30.07;;;19.17;;
4385;SDS011;2207;53.540;10.042;2024-03-02T08:03:13;33.77;;;21.57;;
4385;SDS011;2207;53.540;10.042;2024-03-02T08:05:40;34.77;;;20.50;;
4385;SDS011;2207;53.540;10.042;2024-03-02T08:08:09;34.57;;;20.97;;
4385;SDS011;2207;53.540;10.042;2024-03-02T08:10:36;30.93;;;17.83;;
4385;SDS011;2207;53.540;10.042;2024-03-02T08:13:04;34.47;;;20.07;;
4385;SDS011;2207;53.540;10.042;2024-03-02T08:15:31;38.37;;;20.03;;
4385;SDS011;2207;53.540;10.042;2024-03-02T08:17:58;33.53;;;20.20;;
4385;SDS011;2207;53.540;10.042;2024-03-02T08:20:34;31.93;;;20.50;;
4385;SDS011;2207;53.540;10.042;2024-03-02T08:23:02;31.10;;;19.93;;
4385;SDS011;2207;53.540;10.042;2024-03-02T08:25:31;32.47;;;20.60;;
4385;SDS011;2207;53.540;10.042;2024-03-02T08:27:58;30.63;;;18.90;;
4385;SDS011;2207;53.540;10.042;2024-03-02T08:30:25;32.20;;;20.73;;
4385;SDS011;2207;53.540;10.042;2024-03-02T08:32:57;34.50;;;21.33;;
4385;SDS011;2207;53.540;10.042;2024-03-02T08:35:36;34.30;;;20.23;;
4385;SDS011;2207;53.540;10.042;2024-03-02T08:38:03;35.37;;;21.33;;
4385;SDS011;2207;53.540;10.042;2024-03-02T08:40:35;31.73;;;19.47;;
4385;SDS011;2207;53.540;10.042;2024-03-02T08:43:02;35.17;;;21.13;;
4385;SDS011;2207;53.540;10.042;2024-03-02T08:45:28;38.47;;;19.73;;
4385;SDS011;2207;53.540;10.042;2024-03-02T08:47:55;34.03;;;20.67;;
4385;SDS011;2207;53.540;10.042;2024-03-02T08:50:24;34.30;;;20.97;;
4385;SDS011;2207;53.540;10.042;2024-03-02T08:52:52;35.83;;;21.47;;
4385;SDS011;2207;53.540;10.042;2024-03-02T08:55:18;32.03;;;19.00;;
4385;SDS011;2207;53.540;10.042;2024-03-02T08:57:47;31.63;;;19.77;;
4385;SDS011;2207;53.540;10.042;2024-03-02T09:00:15;30.67;;;19.17;;
4385;SDS011;2207;53.540;10.042;2024-03-02T09:05:21;34.60;;;19.50;;
4385;SDS011;2207;53.540;10.042;2024-03-02T09:07:47;28.03;;;19.87;;
4385;SDS011;2207;53.540;10.042;2024-03-02T09:10:14;27.27;;;17.13;;
4385;SDS011;2207;53.540;10.042;2024-03-02T09:12:42;27.33;;;18.50;;
4385;SDS011;2207;53.540;10.042;2024-03-02T09:15:25;29.40;;;19.03;;
4385;SDS011;2207;53.540;10.042;2024-03-02T09:17:52;26.07;;;18.27;;
4385;SDS011;2207;53.540;10.042;2024-03-02T09:20:33;26.73;;;18.27;;
4385;SDS011;2207;53.540;10.042;2024-03-02T09:23:00;26.80;;;18.30;;
4385;SDS011;2207;53.540;10.042;2024-03-02T09:25:27;30.00;;;18.90;;
4385;SDS011;2207;53.540;10.042;2024-03-02T09:27:54;22.97;;;17.03;;
4385;SDS011;2207;53.540;10.042;2024-03-02T09:30:21;24.43;;;18.23;;
4385;SDS011;2207;53.540;10.042;2024-03-02T09:35:18;25.87;;;17.70;;
4385;SDS011;2207;53.540;10.042;2024-03-02T09:37:45;26.10;;;17.30;;
4385;SDS011;2207;53.540;10.042;2024-03-02T09:40:13;26.47;;;18.17;;
4385;SDS011;2207;53.540;10.042;2024-03-02T09:42:54;23.30;;;16.80;;
4385;SDS011;2207;53.540;10.042;2024-03-02T09:45:23;26.63;;;16.47;;
4385;SDS011;2207;53.540;10.042;2024-03-02T09:47:51;23.23;;;15.70;;
4385;SDS011;2207;53.540;10.042;2024-03-02T09:50:20;22.00;;;15.83;;
4385;SDS011;2207;53.540;10.042;2024-03-02T09:52:48;22.87;;;16.63;;
4385;SDS011;2207;53.540;10.042;2024-03-02T09:55:15;21.77;;;16.20;;
4385;SDS011;2207;53.540;10.042;2024-03-02T09:57:43;22.27;;;16.30;;
4385;SDS011;2207;53.540;10.042;2024-03-02T10:00:12;20.47;;;14.97;;
4385;SDS011;2207;53.540;10.042;2024-03-02T10:02:39;23.95;;;15.68;;
4385;SDS011;2207;53.540;10.042;2024-03-02T10:05:08;19.63;;;15.10;;
4385;SDS011;2207;53.540;10.042;2024-03-02T10:07:38;20.55;;;14.52;;
4385;SDS011;2207;53.540;10.042;2024-03-02T10:10:12;19.23;;;14.57;;
4385;SDS011;2207;53.540;10.042;2024-03-02T10:12:57;19.60;;;15.20;;
4385;SDS011;2207;53.540;10.042;2024-03-02T10:15:32;19.60;;;15.00;;
4385;SDS011;2207;53.540;10.042;2024-03-02T10:17:58;17.55;;;14.95;;
4385;SDS011;2207;53.540;10.042;2024-03-02T10:20:26;16.52;;;13.75;;
4385;SDS011;2207;53.540;10.042;2024-03-02T10:26:13;18.88;;;14.45;;
4385;SDS011;2207;53.540;10.042;2024-03-02T10:28:45;16.88;;;14.00;;
4385;SDS011;2207;53.540;10.042;2024-03-02T10:31:13;15.20;;;12.38;;
4385;SDS011;2207;53.540;10.042;2024-03-02T10:33:40;14.80;;;12.73;;
4385;SDS011;2207;53.540;10.042;2024-03-02T10:36:07;15.20;;;12.02;;
4385;SDS011;2207;53.540;10.042;2024-03-02T10:38:35;18.30;;;13.30;;
4385;SDS011;2207;53.540;10.042;2024-03-02T10:41:04;14.55;;;11.70;;
4385;SDS011;2207;53.540;10.042;2024-03-02T10:43:42;14.38;;;11.32;;
4385;SDS011;2207;53.540;10.042;2024-03-02T10:46:10;16.15;;;11.40;;
4385;SDS011;2207;53.540;10.042;2024-03-02T10:48:50;14.20;;;10.40;;
4385;SDS011;2207;53.540;10.042;2024-03-02T10:51:17;15.07;;;10.87;;
4385;SDS011;2207;53.540;10.042;2024-03-02T10:53:46;14.13;;;10.50;;
4385;SDS011;2207;53.540;10.042;2024-03-02T10:56:15;13.97;;;10.40;;
4385;SDS011;2207;53.540;10.042;2024-03-02T10:59:06;14.67;;;10.47;;
4385;SDS011;2207;53.540;10.042;2024-03-02T11:02:13;12.77;;;10.00;;
4385;SDS011;2207;53.540;10.042;2024-03-02T11:04:58;15.43;;;9.80;;
4385;SDS011;2207;53.540;10.042;2024-03-02T11:07:34;14.63;;;9.57;;
4385;SDS011;2207;53.540;10.042;2024-03-02T11:10:04;13.07;;;9.53;;
4385;SDS011;2207;53.540;10.042;2024-03-02T11:12:38;13.57;;;8.97;;
4385;SDS011;2207;53.540;10.042;2024-03-02T11:15:10;14.63;;;8.17;;
4385;SDS011;2207;53.540;10.042;2024-03-02T11:17:39;14.13;;;8.80;;
4385;SDS011;2207;53.540;10.042;2024-03-02T11:20:08;13.53;;;8.83;;
4385;SDS011;2207;53.540;10.042;2024-03-02T11:22:50;10.10;;;7.97;;
4385;SDS011;2207;53.540;10.042;2024-03-02T11:25:22;12.30;;;8.43;;
4385;SDS011;2207;53.540;10.042;2024-03-02T11:28:14;11.07;;;7.93;;
4385;SDS011;2207;53.540;10.042;2024-03-02T11:30:51;12.10;;;9.00;;
4385;SDS011;2207;53.540;10.042;2024-03-02T11:33:27;12.63;;;8.37;;
4385;SDS011;2207;53.540;10.042;2024-03-02T11:35:57;10.40;;;7.73;;
4385;SDS011;2207;53.540;10.042;2024-03-02T11:38:40;12.80;;;7.77;;
4385;SDS011;2207;53.540;10.042;2024-03-02T11:41:16;10.73;;;7.27;;
4385;SDS011;2207;53.540;10.042;2024-03-02T11:43:57;10.20;;;7.40;;
4385;SDS011;2207;53.540;10.042;2024-03-02T11:46:26;9.03;;;6.87;;
4385;SDS011;2207;53.540;10.042;2024-03-02T11:48:54;9.80;;;7.30;;
4385;SDS011;2207;53.540;10.042;2024-03-02T11:51:23;10.83;;;6.87;;
4385;SDS011;2207;53.540;10.042;2024-03-02T11:53:54;10.10;;;7.63;;
4385;SDS011;2207;53.540;10.042;2024-03-02T11:56:24;10.77;;;7.43;;
4385;SDS011;2207;53.540;10.042;2024-03-02T11:58:53;9.73;;;6.43;;
4385;SDS011;2207;53.540;10.042;2024-03-02T12:01:26;9.53;;;6.70;;
4385;SDS011;2207;53.540;10.042;2024-03-02T12:03:54;10.63;;;7.40;;
4385;SDS011;2207;53.540;10.042;2024-03-02T12:06:21;10.47;;;7.17;;
4385;SDS011;2207;53.540;10.042;2024-03-02T12:08:52;10.37;;;7.10;;
4385;SDS011;2207;53.540;10.042;2024-03-02T12:11:19;12.87;;;7.20;;
4385;SDS011;2207;53.540;10.042;2024-03-02T12:14:03;8.83;;;6.97;;
4385;SDS011;2207;53.540;10.042;2024-03-02T12:16:36;9.50;;;6.60;;
4385;SDS011;2207;53.540;10.042;2024-03-02T12:21:59;10.37;;;6.73;;
4385;SDS011;2207;53.540;10.042;2024-03-02T12:24:27;10.17;;;6.87;;
4385;SDS011;2207;53.540;10.042;2024-03-02T12:26:55;9.90;;;7.27;;
4385;SDS011;2207;53.540;10.042;2024-03-02T12:29:23;9.73;;;7.03;;
4385;SDS011;2207;53.540;10.042;2024-03-02T12:34:35;9.27;;;5.93;;
4385;SDS011;2207;53.540;10.042;2024-03-02T12:37:05;8.83;;;6.90;;
4385;SDS011;2207;53.540;10.042;2024-03-02T12:39:32;9.83;;;7.50;;
4385;SDS011;2207;53.540;10.042;2024-03-02T12:42:02;10.30;;;7.07;;
4385;SDS011;2207;53.540;10.042;2024-03-02T12:44:29;13.50;;;7.00;;
4385;SDS011;2207;53.540;10.042;2024-03-02T12:46:56;10.10;;;7.17;;
4385;SDS011;2207;53.540;10.042;2024-03-02T12:52:50;10.53;;;7.67;;
4385;SDS011;2207;53.540;10.042;2024-03-02T12:58:02;12.60;;;8.23;;
4385;SDS011;2207;53.540;10.042;2024-03-02T13:00:45;11.23;;;7.27;;
4385;SDS011;2207;53.540;10.042;2024-03-02T13:03:12;10.57;;;8.00;;
4385;SDS011;2207;53.540;10.042;2024-03-02T13:05:47;12.37;;;7.87;;
4385;SDS011;2207;53.540;10.042;2024-03-02T13:08:18;10.00;;;8.07;;
4385;SDS011;2207;53.540;10.042;2024-03-02T13:10:45;12.43;;;7.83;;
4385;SDS011;2207;53.540;10.042;2024-03-02T13:13:15;11.50;;;8.40;;
4385;SDS011;2207;53.540;10.042;2024-03-02T13:15:42;12.17;;;8.27;;
4385;SDS011;2207;53.540;10.042;2024-03-02T13:18:11;13.07;;;8.63;;
4385;SDS011;2207;53.540;10.042;2024-03-02T13:20:38;11.53;;;7.90;;
4385;SDS011;2207;53.540;10.042;2024-03-02T13:23:23;9.73;;;7.60;;
4385;SDS011;2207;53.540;10.042;2024-03-02T13:26:01;11.53;;;7.97;;
4385;SDS011;2207;53.540;10.042;2024-03-02T13:28:56;14.47;;;9.47;;
4385;SDS011;2207;53.540;10.042;2024-03-02T13:32:11;14.30;;;10.43;;
4385;SDS011;2207;53.540;10.042;2024-03-02T13:34:39;12.60;;;8.80;;
4385;SDS011;2207;53.540;10.042;2024-03-02T13:37:06;14.07;;;9.63;;
4385;SDS011;2207;53.540;10.042;2024-03-02T13:42:58;14.47;;;9.77;;
4385;SDS011;2207;53.540;10.042;2024-03-02T13:45:25;14.17;;;10.23;;
4385;SDS011;2207;53.540;10.042;2024-03-02T13:47:53;14.67;;;9.07;;
4385;SDS011;2207;53.540;10.042;2024-03-02T13:50:20;14.27;;;9.57;;
4385;SDS011;2207;53.540;10.042;2024-03-02T13:52:47;13.03;;;9.33;;
4385;SDS011;2207;53.540;10.042;2024-03-02T13:55:21;15.23;;;10.43;;
4385;SDS011;2207;53.540;10.042;2024-03-02T13:57:48;13.63;;;10.30;;
4385;SDS011;2207;53.540;10.042;2024-03-02T14:00:17;13.00;;;10.57;;
4385;SDS011;2207;53.540;10.042;2024-03-02T14:02:57;15.40;;;10.87;;
4385;SDS011;2207;53.540;10.042;2024-03-02T14:05:24;14.13;;;10.27;;
4385;SDS011;2207;53.540;10.042;2024-03-02T14:07:52;12.97;;;10.73;;
4385;SDS011;2207;53.540;10.042;2024-03-02T14:13:18;13.05;;;9.65;;
4385;SDS011;2207;53.540;10.042;2024-03-02T14:15:50;12.38;;;10.43;;
4385;SDS011;2207;53.540;10.042;2024-03-02T14:18:19;12.30;;;10.18;;
4385;SDS011;2207;53.540;10.042;2024-03-02T14:20:48;12.55;;;10.48;;
4385;SDS011;2207;53.540;10.042;2024-03-02T14:23:31;11.80;;;10.10;;
4385;SDS011;2207;53.540;10.042;2024-03-02T14:25:59;11.73;;;9.30;;
4385;SDS011;2207;53.540;10.042;2024-03-02T14:28:26;14.77;;;10.57;;
4385;SDS011;2207;53.540;10.042;2024-03-02T14:30:54;13.70;;;9.93;;
4385;SDS011;2207;53.540;10.042;2024-03-02T14:33:41;13.57;;;9.80;;
4385;SDS011;2207;53.540;10.042;2024-03-02T14:36:08;11.35;;;9.23;;
4385;SDS011;2207;53.540;10.042;2024-03-02T14:38:36;11.23;;;8.57;;
4385;SDS011;2207;53.540;10.042;2024-03-02T14:41:14;12.25;;;7.72;;
4385;SDS011;2207;53.540;10.042;2024-03-02T14:43:41;10.20;;;7.68;;
4385;SDS011;2207;53.540;10.042;2024-03-02T14:46:09;13.07;;;7.55;;
4385;SDS011;2207;53.540;10.042;2024-03-02T14:48:36;11.13;;;7.93;;
4385;SDS011;2207;53.540;10.042;2024-03-02T14:51:03;10.97;;;8.20;;
4385;SDS011;2207;53.540;10.042;2024-03-02T14:53:44;12.10;;;8.50;;
4385;SDS011;2207;53.540;10.042;2024-03-02T14:56:25;10.47;;;8.10;;
4385;SDS011;2207;53.540;10.042;2024-03-02T14:58:54;12.97;;;8.60;;
4385;SDS011;2207;53.540;10.042;2024-03-02T15:04:22;14.23;;;8.73;;
4385;SDS011;2207;53.540;10.042;2024-03-02T15:07:04;10.97;;;8.90;;
4385;SDS011;2207;53.540;10.042;2024-03-02T15:09:31;13.20;;;9.43;;
4385;SDS011;2207;53.540;10.042;2024-03-02T15:12:32;14.33;;;10.37;;
4385;SDS011;2207;53.540;10.042;2024-03-02T15:15:14;13.30;;;9.67;;
4385;SDS011;2207;53.540;10.042;2024-03-02T15:17:44;12.33;;;9.17;;
4385;SDS011;2207;53.540;10.042;2024-03-02T15:20:11;14.37;;;10.20;;
4385;SDS011;2207;53.540;10.042;2024-03-02T15:22:40;14.20;;;10.20;;